Salisbury, MA (01952)

5:27 AM EDT on September 05, 2015 (GMT -0400)
Merri-Mar Yacht Basin | | Change Station
CLOSE
Current Station
Personal Weather Station
Location: Newburyport, MA
Elevation: 25 ft
Nearby Weather Stations

Elev 25 ft 42.82 °N, 70.89 °W | Updated 7 minutes ago

Clear
Clear
54.7 °F
Feels Like 54.7 °F
N
1.0
Wind Variable Wind from NW
Gusts 2.0 mph

Today
High -- | Low -- °F
--% Chance of Precip.
Yesterday
High -- | Low -- °F
Precip. -- in
6:12 AM 7:11 PM
Waning Gibbous, 50% visible
Pressure 30.29 in
Visibility 10.0 miles
Clouds Clear
Dew Point 53 °F
Humidity 95%
Rainfall 0.00 in
Snow Depth Not available.
UV 0 out of 12
Pollen 8.50 out of 12
Air Quality Not available.
Flu Activity Not available.
METAR KLWM 050854Z AUTO 04003KT 10SM CLR 11/10 A3029 RMK AO2 SLP256 T01110100 53005
Pressure 30.29 in
Visibility 10.0 miles
Clouds Clear
Dew Point 53 °F
Humidity 95%
Rainfall 0.00 in
Snow Depth Not available.
UV 0 out of 12
Pollen 8.50 out of 12
Air Quality Not available.
Flu Activity Not available.
METAR KLWM 050854Z AUTO 04003KT 10SM CLR 11/10 A3029 RMK AO2 SLP256 T01110100 53005

10-Day Weather Forecast

×

Almanac

Astronomy

Sep. 05, 2015 Rise Set
Actual Time
Civil Twilight
Nautical Twilight
Astronomical Twilight
Moon
Length of Visible Light
Length of Day
Tomorrow will be .
, % of the Moon is Illuminated

Today's Extremes

State Highs State Lows

Community

WunderPhotos

Upload Photos

1,852,440 photos uploaded!

WunderBlogs® & News

Nearby

Air Quality

  Air Quality AQ Index Pollutant
Not available.

Snow Depth

Station Depth Elevation

Earthquake Activity

City Distance Mag. Time & Date
Minimum magnitude displayed is 2.5.

Coastal Water Temperatures

Place Temperature

Stations

Nearby Weather Stations

Station Location Temp. Windchill Dew Point Humidity Wind Precip. Elev Updated Type